Time;durP1;ratioP1;P1;durP2;ratioP2;P2;SDS_P1;SDS_P2;PMS_P1;PMS_P2;Temp;Humidity;BMP_temperature;BMP_pressure;BME280_temperature;BME280_humidity;BME280_pressure;Samples;Min_cycle;Max_cycle;Signal;HPM_P1;HPM_P2
2022/02/03 00:00:48;;;;;;;4.95;1.90;;;;;;;2.70;100.00;101718.59;6199694;28;20521;-76
2022/02/03 00:03:55;;;;;;;6.43;2.13;;;;;;;2.74;100.00;101720.31;6199893;28;20077;-77
2022/02/03 00:07:04;;;;;;;11.00;1.48;;;;;;;2.75;100.00;101714.25;6200250;28;20053;-77
2022/02/03 00:10:27;;;;;;;3.15;1.02;;;;;;;2.77;100.00;101709.91;6199670;28;20248;-77
2022/02/03 00:17:02;;;;;;;6.15;2.15;;;;;;;2.78;100.00;101696.06;6199751;28;20125;-76
2022/02/03 00:24:04;;;;;;;2.42;1.20;;;;;;;2.80;100.00;101699.50;6199777;28;20054;-76
2022/02/03 00:27:11;;;;;;;4.40;1.20;;;;;;;2.79;100.00;101696.06;6199240;28;20046;-77
2022/02/03 00:30:15;;;;;;;2.35;1.33;;;;;;;2.79;100.00;101684.81;6199331;28;20141;-77
2022/02/03 00:33:24;;;;;;;4.30;1.20;;;;;;;2.79;100.00;101688.25;6198663;28;20054;-76
2022/02/03 00:36:27;;;;;;;3.20;1.58;;;;;;;2.78;100.00;101677.91;6199289;28;20104;-77
2022/02/03 00:49:25;;;;;;;3.17;1.17;;;;;;;2.78;100.00;101657.13;6176883;28;20046;-77
2022/02/03 00:52:27;;;;;;;3.40;1.42;;;;;;;2.80;100.00;101657.97;6198963;28;20521;-77
2022/02/03 00:55:36;;;;;;;1.83;1.10;;;;;;;2.80;100.00;101650.19;6198832;28;20046;-77
2022/02/03 00:58:42;;;;;;;3.90;1.02;;;;;;;2.83;100.00;101647.59;6199134;28;20133;-77
2022/02/03 01:01:49;;;;;;;2.50;1.20;;;;;;;2.87;100.00;101640.66;6198474;28;20066;-77
2022/02/03 01:04:54;;;;;;;12.48;1.70;;;;;;;2.93;100.00;101635.41;6198059;28;20042;-74
2022/02/03 01:08:04;;;;;;;1.92;1.35;;;;;;;3.02;100.00;101631.00;6198678;28;20050;-76
2022/02/03 01:11:11;;;;;;;5.72;1.30;;;;;;;3.12;100.00;101623.97;6198353;28;20391;-76
2022/02/03 01:14:20;;;;;;;8.48;1.98;;;;;;;3.14;100.00;101626.59;6198644;28;20539;-76
2022/02/03 01:17:33;;;;;;;2.78;1.30;;;;;;;3.16;100.00;101620.47;6198792;28;20518;-76
2022/02/03 01:34:13;;;;;;;5.20;1.50;;;;;;;3.30;100.00;101616.03;6198376;28;20461;-76
2022/02/03 01:37:24;;;;;;;6.07;1.33;;;;;;;3.31;100.00;101614.28;6198131;28;20050;-76
2022/02/03 01:43:56;;;;;;;4.53;1.05;;;;;;;3.37;100.00;101608.19;6197498;28;20054;-76
2022/02/03 01:47:07;;;;;;;9.65;2.47;;;;;;;3.42;100.00;101603.81;6198214;28;20137;-76
2022/02/03 01:53:46;;;;;;;4.68;2.03;;;;;;;3.41;100.00;101595.16;6099958;29;20135;-76
2022/02/03 01:56:52;;;;;;;15.77;1.60;;;;;;;3.38;100.00;101592.56;6105558;29;20055;-76
2022/02/03 02:00:03;;;;;;;4.05;1.80;;;;;;;3.38;100.00;101594.31;6194016;28;20046;-76
2022/02/03 02:03:23;;;;;;;6.82;2.10;;;;;;;3.37;100.00;101583.06;6197692;28;20430;-76
2022/02/03 02:06:42;;;;;;;6.60;2.70;;;;;;;3.39;100.00;101580.44;6197145;28;20058;-76
2022/02/03 02:10:02;;;;;;;2.80;1.88;;;;;;;3.42;100.00;101576.09;6197549;28;20421;-76
2022/02/03 02:13:29;;;;;;;9.23;4.10;;;;;;;3.42;100.00;101580.41;6197800;28;20053;-76
2022/02/03 02:17:30;;;;;;;6.50;2.80;;;;;;;3.43;100.00;101566.56;6202207;28;20050;-76
2022/02/03 02:37:37;;;;;;;5.05;2.42;;;;;;;3.41;100.00;101532.81;6202303;28;19926;-76
2022/02/03 02:41:17;;;;;;;3.78;2.30;;;;;;;3.42;100.00;101529.31;6201954;28;20054;-76
2022/02/03 02:44:19;;;;;;;5.50;2.70;;;;;;;3.45;100.00;101516.31;6201702;28;20058;-75
2022/02/03 02:47:27;;;;;;;7.78;3.33;;;;;;;3.47;100.00;101522.31;6201819;28;20405;-76
2022/02/03 02:50:37;;;;;;;9.10;2.72;;;;;;;3.48;100.00;101507.59;6201278;28;20090;-76
2022/02/03 02:54:05;;;;;;;14.20;3.90;;;;;;;3.51;100.00;101513.63;6201748;28;20090;-76
2022/02/03 02:57:32;;;;;;;11.60;4.88;;;;;;;3.60;100.00;101504.84;6201532;28;20050;-76
2022/02/03 03:01:33;;;;;;;7.45;3.80;;;;;;;3.64;100.00;101496.16;6201495;28;20088;-76
2022/02/03 03:31:24;;;;;;;9.85;4.57;;;;;;;3.85;100.00;101456.00;6200720;28;20468;-76
2022/02/03 03:34:52;;;;;;;12.52;4.47;;;;;;;3.89;100.00;101462.00;6200868;28;20387;-76
2022/02/03 03:37:58;;;;;;;14.00;5.07;;;;;;;3.92;100.00;101451.56;6200884;28;20053;-76
2022/02/03 03:41:01;;;;;;;13.60;4.68;;;;;;;4.00;100.00;101454.94;6200569;28;20054;-76
2022/02/03 03:44:05;;;;;;;12.02;4.78;;;;;;;4.00;100.00;101452.31;6199901;28;20494;-76
2022/02/03 03:47:10;;;;;;;13.30;4.93;;;;;;;4.01;100.00;101452.28;6200483;28;20053;-76
2022/02/03 03:50:16;;;;;;;15.32;5.93;;;;;;;4.05;100.00;101450.50;6199592;28;20057;-76
2022/02/03 03:53:26;;;;;;;11.65;5.85;;;;;;;4.13;100.00;101451.22;6200332;28;20136;-76
2022/02/03 03:56:37;;;;;;;17.02;5.35;;;;;;;4.11;100.00;101449.56;6199991;28;20545;-76
2022/02/03 04:31:47;;;;;;;9.40;4.57;;;;;;;4.41;100.00;101420.44;6199344;28;20432;-76
2022/02/03 04:35:32;;;;;;;13.38;4.75;;;;;;;4.44;100.00;101420.38;6199356;28;20060;-76
2022/02/03 04:38:40;;;;;;;13.27;5.38;;;;;;;4.45;100.00;101416.91;6197952;28;20137;-76
2022/02/03 04:42:28;;;;;;;10.07;4.80;;;;;;;4.46;100.00;101407.34;6198918;28;20169;-76
2022/02/03 04:46:12;;;;;;;11.93;3.90;;;;;;;4.53;100.00;101408.94;6199205;28;20050;-77
2022/02/03 04:56:55;;;;;;;11.60;4.18;;;;;;;4.56;100.00;101396.75;6199067;28;20477;-76
2022/02/03 05:00:34;;;;;;;8.48;4.25;;;;;;;4.63;100.00;101388.81;6198540;28;20058;-76
2022/02/03 05:04:17;;;;;;;13.75;4.75;;;;;;;4.68;100.00;101384.38;6198920;28;20050;-76
2022/02/03 05:07:47;;;;;;;9.90;4.55;;;;;;;4.68;100.00;101381.78;6198611;28;20046;-76
2022/02/03 05:11:23;;;;;;;11.07;4.68;;;;;;;4.71;100.00;101384.34;6198555;28;20047;-76
2022/02/03 05:15:17;;;;;;;11.90;4.70;;;;;;;4.78;100.00;101372.94;6198578;28;20103;-77
2022/02/03 05:18:56;;;;;;;10.60;4.13;;;;;;;4.80;100.00;101366.78;6198129;28;20053;-77
2022/02/03 05:26:14;;;;;;;15.50;5.30;;;;;;;4.93;100.00;101366.56;6311241;27;20362;-76
2022/02/03 05:33:37;;;;;;;11.88;4.30;;;;;;;4.97;100.00;101366.47;6300800;28;20052;-78
2022/02/03 05:44:15;;;;;;;15.82;5.80;;;;;;;5.15;100.00;101362.63;6209084;28;20046;-77
2022/02/03 05:47:58;;;;;;;12.23;4.00;;;;;;;5.17;100.00;101371.25;6217180;28;20102;-76
2022/02/03 05:51:30;;;;;;;11.80;4.40;;;;;;;5.18;100.00;101353.84;6292991;28;20428;-76
2022/02/03 06:01:41;;;;;;;10.77;4.63;;;;;;;5.24;100.00;101357.22;6293620;28;20045;-76
2022/02/03 06:04:56;;;;;;;8.55;3.90;;;;;;;5.32;100.00;101354.44;6298386;28;20041;-76
2022/02/03 06:08:13;;;;;;;10.63;4.65;;;;;;;5.34;100.00;101344.84;6289788;28;20052;-76
2022/02/03 06:14:40;;;;;;;7.90;3.70;;;;;;;5.39;100.00;101327.34;6288544;28;20049;-77
2022/02/03 06:21:28;;;;;;;12.68;4.45;;;;;;;5.34;100.00;101314.41;6291620;28;20052;-77
2022/02/03 06:24:36;;;;;;;16.80;4.82;;;;;;;5.39;100.00;101314.31;6291907;28;20044;-76
2022/02/03 06:27:39;;;;;;;8.65;4.15;;;;;;;5.47;100.00;101311.53;6292486;28;20139;-77
2022/02/03 06:30:41;;;;;;;10.93;4.65;;;;;;;5.52;100.00;101309.69;6291681;28;20147;-77
2022/02/03 06:33:45;;;;;;;14.02;5.05;;;;;;;5.61;100.00;101304.25;6291864;28;20044;-77
2022/02/03 06:36:47;;;;;;;12.30;5.43;;;;;;;5.63;100.00;101298.97;6274069;28;20121;-77
2022/02/03 06:39:48;;;;;;;10.00;3.85;;;;;;;5.63;100.00;101301.59;6271450;28;20056;-77
2022/02/03 06:42:54;;;;;;;13.73;5.78;;;;;;;5.63;100.00;101302.44;6273843;28;20052;-77
2022/02/03 06:45:59;;;;;;;16.30;5.10;;;;;;;5.63;100.00;101294.63;6269907;28;20180;-77
2022/02/03 06:49:11;;;;;;;14.98;5.30;;;;;;;5.60;100.00;101292.13;6274783;28;20107;-77
2022/02/03 06:52:18;;;;;;;15.90;5.75;;;;;;;5.64;100.00;101293.75;6273572;28;20053;-77
2022/02/03 06:55:26;;;;;;;24.52;6.05;;;;;;;5.66;100.00;101296.31;6275086;28;20052;-76
2022/02/03 06:58:34;;;;;;;12.00;5.95;;;;;;;5.68;100.00;101291.91;6276400;28;20049;-76
2022/02/03 07:01:39;;;;;;;13.00;5.65;;;;;;;5.69;100.00;101294.50;6272852;28;20056;-76
2022/02/03 07:04:45;;;;;;;21.50;5.80;;;;;;;5.75;100.00;101304.78;6278938;28;20044;-76
2022/02/03 07:07:46;;;;;;;15.95;6.00;;;;;;;5.79;100.00;101306.41;6276183;28;20427;-77
2022/02/03 07:10:49;;;;;;;15.00;6.03;;;;;;;5.79;100.00;101300.34;6269671;28;20060;-77
2022/02/03 07:13:51;;;;;;;17.52;6.15;;;;;;;5.79;100.00;101309.03;6274538;28;20080;-77
2022/02/03 07:16:53;;;;;;;13.02;4.43;;;;;;;5.83;100.00;101302.84;6274558;28;20049;-76
2022/02/03 07:20:01;;;;;;;21.75;6.47;;;;;;;5.84;100.00;101307.16;6271131;28;20053;-77
2022/02/03 07:23:03;;;;;;;14.23;6.45;;;;;;;5.82;100.00;101306.34;6281820;28;20060;-77
2022/02/03 07:26:04;;;;;;;15.68;6.10;;;;;;;5.88;100.00;101294.91;6273783;28;20056;-76
2022/02/03 07:29:05;;;;;;;19.88;6.95;;;;;;;5.94;100.00;101305.19;6273899;28;20420;-77
2022/02/03 07:32:08;;;;;;;12.77;6.05;;;;;;;5.90;100.00;101298.31;6273953;28;20052;-76
2022/02/03 07:35:10;;;;;;;17.67;6.38;;;;;;;5.92;100.00;101299.19;6272112;28;20056;-76
2022/02/03 07:38:12;;;;;;;15.18;5.25;;;;;;;5.91;100.00;101296.59;6273782;28;20532;-76
2022/02/03 07:41:13;;;;;;;20.25;7.28;;;;;;;5.92;100.00;101299.19;6273541;28;20056;-76
2022/02/03 07:44:16;;;;;;;27.75;7.38;;;;;;;6.03;100.00;101291.91;6273445;28;20041;-76
2022/02/03 07:47:17;;;;;;;23.85;7.03;;;;;;;6.09;100.00;101288.31;6281671;28;20048;-76
2022/02/03 07:50:20;;;;;;;14.43;6.82;;;;;;;6.13;100.00;101297.75;6277301;28;20053;-76
2022/02/03 07:53:22;;;;;;;15.48;6.28;;;;;;;6.12;100.00;101293.44;6271120;28;20055;-77
2022/02/03 07:56:23;;;;;;;19.80;7.15;;;;;;;6.14;100.00;101290.81;6276794;28;20048;-77
2022/02/03 07:59:25;;;;;;;20.23;7.00;;;;;;;6.17;100.00;101288.09;6273016;28;20491;-77
2022/02/03 08:02:26;;;;;;;20.80;7.90;;;;;;;6.23;100.00;101295.78;6273067;28;20056;-77
2022/02/03 08:05:29;;;;;;;20.45;7.20;;;;;;;6.25;100.00;101289.59;6273623;28;20048;-76
2022/02/03 08:08:34;;;;;;;21.52;7.53;;;;;;;6.27;100.00;101276.53;6272900;28;20404;-79
2022/02/03 08:11:40;;;;;;;21.45;7.30;;;;;;;6.29;100.00;101286.03;6275841;28;20068;-76
2022/02/03 08:14:45;;;;;;;18.38;6.63;;;;;;;6.29;100.00;101287.78;6273093;28;20048;-76
2022/02/03 08:17:47;;;;;;;22.58;7.07;;;;;;;6.38;100.00;101286.69;6271407;28;20048;-77
2022/02/03 08:20:54;;;;;;;23.58;7.88;;;;;;;6.40;100.00;101283.09;6259038;28;20056;-79
2022/02/03 08:30:45;;;;;;;26.23;9.18;;;;;;;6.49;100.00;101282.00;6254392;28;20041;-76
2022/02/03 08:33:49;;;;;;;28.73;9.53;;;;;;;6.53;100.00;101271.44;6272484;28;20052;-77
2022/02/03 08:36:52;;;;;;;28.40;8.07;;;;;;;6.54;100.00;101265.34;6249310;28;20194;-76
2022/02/03 08:39:56;;;;;;;26.75;9.98;;;;;;;6.54;100.00;101254.00;6247284;28;20049;-77
2022/02/03 08:42:57;;;;;;;21.73;7.30;;;;;;;6.58;100.00;101251.25;6247460;28;20410;-78
2022/02/03 08:46:01;;;;;;;20.30;7.55;;;;;;;6.54;100.00;101244.44;6247328;28;20447;-77
2022/02/03 08:49:05;;;;;;;18.77;7.25;;;;;;;6.54;100.00;101240.94;6247350;28;20520;-78
2022/02/03 08:52:16;;;;;;;17.15;6.90;;;;;;;6.57;100.00;101236.50;6250527;28;20077;-76
2022/02/03 08:55:25;;;;;;;18.10;6.65;;;;;;;6.68;100.00;101240.56;6247231;28;20064;-79
2022/02/03 09:28:43;;;;;;;16.05;6.88;;;;;;;6.77;100.00;101233.31;6271295;28;20052;-76
2022/02/03 09:38:36;;;;;;;16.25;6.97;;;;;;;6.73;100.00;101229.09;6271701;28;20049;-76
2022/02/03 09:52:05;;;;;;;16.30;5.32;;;;;;;6.72;100.00;101237.84;6273600;28;20484;-75
2022/02/03 09:55:19;;;;;;;15.73;5.72;;;;;;;6.69;100.00;101235.28;6246402;28;20042;-78
2022/02/03 09:58:25;;;;;;;12.60;5.15;;;;;;;6.70;100.00;101234.38;6247387;28;20493;-77
2022/02/03 10:01:34;;;;;;;11.50;5.57;;;;;;;6.71;100.00;101233.47;6270746;28;20049;-79
2022/02/03 10:04:44;;;;;;;13.52;5.95;;;;;;;6.71;100.00;101232.63;6271724;28;20052;-79
2022/02/03 10:07:52;;;;;;;12.02;5.65;;;;;;;6.69;100.00;101231.84;6271945;28;20049;-77
2022/02/03 10:11:15;;;;;;;13.05;5.15;;;;;;;6.68;100.00;101222.28;6273147;28;20055;-77
2022/02/03 10:14:31;;;;;;;16.30;5.90;;;;;;;6.69;100.00;101224.00;6275749;28;20118;-77
2022/02/03 10:17:34;;;;;;;11.85;4.72;;;;;;;6.67;100.00;101220.56;6275864;28;20057;-76
2022/02/03 10:20:36;;;;;;;14.10;5.53;;;;;;;6.67;100.00;101223.16;6275839;28;20503;-77
2022/02/03 10:23:52;;;;;;;14.82;5.80;;;;;;;6.67;100.00;101226.63;6253355;28;20184;-77
2022/02/03 10:26:54;;;;;;;16.48;5.45;;;;;;;6.67;100.00;101220.56;6264093;28;20081;-76
2022/02/03 10:30:19;;;;;;;14.18;5.85;;;;;;;6.62;100.00;101231.13;6275166;28;20057;-76
2022/02/03 10:33:31;;;;;;;11.40;3.92;;;;;;;6.63;100.00;101216.31;6275433;28;20049;-77
2022/02/03 10:36:46;;;;;;;11.70;5.78;;;;;;;6.59;100.00;101218.19;6275912;28;20052;-76
2022/02/03 10:40:09;;;;;;;14.65;4.57;;;;;;;6.52;100.00;101227.09;6275461;28;20052;-78
2022/02/03 10:43:34;;;;;;;6.25;3.92;;;;;;;6.50;100.00;101224.53;6275055;28;20530;-78
2022/02/03 10:46:55;;;;;;;7.57;3.30;;;;;;;6.46;100.00;101227.28;6275325;28;20044;-76
2022/02/03 10:53:49;;;;;;;6.93;3.55;;;;;;;6.39;100.00;101216.13;6198069;28;20112;-76
2022/02/03 10:57:16;;;;;;;7.63;3.97;;;;;;;6.35;100.00;101214.50;6275652;28;20053;-77
2022/02/03 11:00:51;;;;;;;5.45;3.00;;;;;;;6.34;100.00;101216.28;6272961;28;20052;-76
2022/02/03 11:04:04;;;;;;;7.53;3.33;;;;;;;6.42;100.00;101225.66;6272741;28;20048;-76
2022/02/03 11:07:11;;;;;;;9.07;3.88;;;;;;;6.45;100.00;101223.81;6274440;28;20057;-75
2022/02/03 11:10:26;;;;;;;7.47;3.10;;;;;;;6.40;100.00;101219.59;6273848;28;20048;-75
2022/02/03 11:13:32;;;;;;;9.80;3.75;;;;;;;6.38;100.00;101206.59;6269242;28;20523;-75
2022/02/03 11:16:39;;;;;;;7.97;3.00;;;;;;;6.41;100.00;101221.34;6271192;28;20412;-77
2022/02/03 11:19:47;;;;;;;7.93;3.67;;;;;;;6.39;100.00;101216.13;6274095;28;20057;-75
2022/02/03 11:22:55;;;;;;;8.15;3.33;;;;;;;6.48;100.00;101208.03;6256160;28;20049;-76
2022/02/03 11:26:07;;;;;;;6.28;2.85;;;;;;;6.47;100.00;101210.72;6255991;28;20136;-77
2022/02/03 11:29:37;;;;;;;7.45;3.40;;;;;;;6.52;100.00;101211.44;6273916;28;20056;-77
2022/02/03 11:32:56;;;;;;;8.38;3.70;;;;;;;6.52;100.00;101214.88;6276706;28;20056;-76
2022/02/03 11:36:50;;;;;;;7.57;3.50;;;;;;;6.47;100.00;101197.66;6275489;28;20041;-77
2022/02/03 11:44:12;;;;;;;7.93;3.60;;;;;;;6.60;100.00;101168.53;6269231;28;20048;-76
2022/02/03 11:47:34;;;;;;;5.90;2.92;;;;;;;6.62;100.00;101155.41;6278672;28;20052;-80
2022/02/03 11:54:20;;;;;;;6.32;2.90;;;;;;;6.68;100.00;101160.47;6249722;28;20053;-78
2022/02/03 11:57:40;;;;;;;8.25;3.10;;;;;;;6.62;100.00;101158.03;6263916;28;20045;-78
2022/02/03 12:00:56;;;;;;;5.47;2.75;;;;;;;6.68;100.00;101149.16;6273596;28;20055;-78
2022/02/03 12:07:45;;;;;;;7.65;3.47;;;;;;;6.65;100.00;101142.28;6243484;28;20493;-78
2022/02/03 12:11:12;;;;;;;7.32;2.40;;;;;;;6.64;100.00;101137.97;6247778;28;20046;-77
2022/02/03 12:17:59;;;;;;;4.55;2.72;;;;;;;6.69;100.00;101120.38;6248589;28;20049;-78
2022/02/03 12:21:09;;;;;;;5.70;2.35;;;;;;;6.68;100.00;101121.28;6248159;28;20050;-78
2022/02/03 12:24:17;;;;;;;;;;;;;;;6.69;100.00;101111.69;6268170;28;20041;-78
2022/02/03 12:27:33;;;;;;;4.50;2.13;;;;;;;6.62;100.00;101108.41;6272751;28;20003;-79
2022/02/03 12:30:42;;;;;;;6.78;2.65;;;;;;;6.61;100.00;101112.78;6266173;28;20667;-76
2022/02/03 12:37:26;;;;;;;;;;;;;;;6.65;100.00;101100.50;6253371;28;20263;-79
2022/02/03 12:40:36;;;;;;;10.70;3.10;;;;;;;6.67;100.00;101088.22;6260269;28;19921;-77
2022/02/03 12:43:41;;;;;;;5.55;3.03;;;;;;;6.64;100.00;101093.56;6259968;28;20065;-76
2022/02/03 12:46:42;;;;;;;8.00;3.30;;;;;;;6.60;100.00;101084.13;6269725;28;20049;-78
2022/02/03 12:49:45;;;;;;;6.00;2.95;;;;;;;6.68;100.00;101082.13;6274456;28;20139;-77
2022/02/03 12:52:47;;;;;;;5.60;2.95;;;;;;;6.76;100.00;101074.03;6270917;28;20540;-78
2022/02/03 12:55:51;;;;;;;9.60;3.65;;;;;;;6.78;100.00;101077.44;6272505;28;20048;-78
2022/02/03 12:59:00;;;;;;;7.50;3.35;;;;;;;6.76;100.00;101074.88;6272483;28;20107;-79
2022/02/03 13:02:09;;;;;;;8.73;3.08;;;;;;;6.70;100.00;101071.63;6272572;28;20080;-78
2022/02/03 13:05:13;;;;;;;5.45;3.08;;;;;;;6.66;100.00;101070.84;6271789;28;20049;-76
2022/02/03 13:08:14;;;;;;;9.77;3.40;;;;;;;6.57;100.00;101063.31;6272318;28;20055;-78
2022/02/03 13:11:21;;;;;;;7.13;3.05;;;;;;;6.60;100.00;101052.78;6271420;28;20048;-77
2022/02/03 13:14:28;;;;;;;7.82;2.83;;;;;;;6.51;100.00;101050.47;6247710;28;20413;-78
2022/02/03 13:17:34;;;;;;;5.40;2.88;;;;;;;6.51;100.00;101035.66;6246972;28;20564;-78
2022/02/03 13:20:41;;;;;;;8.20;2.95;;;;;;;6.48;100.00;101030.50;6260759;28;21639;-78
2022/02/03 13:23:49;;;;;;;6.90;3.03;;;;;;;6.54;100.00;101012.06;6264676;28;20056;-79
2022/02/03 13:26:51;;;;;;;5.95;3.08;;;;;;;6.51;100.00;101014.75;6260104;28;20051;-79
2022/02/03 13:30:01;;;;;;;4.85;2.85;;;;;;;6.55;100.00;101011.16;6274598;28;20060;-79
2022/02/03 13:33:04;;;;;;;11.65;3.30;;;;;;;6.64;100.00;100996.09;6279191;28;20056;-79
2022/02/03 13:36:09;;;;;;;6.97;3.45;;;;;;;6.68;100.00;100995.94;6275767;28;20076;-77
2022/02/03 13:39:24;;;;;;;9.18;3.85;;;;;;;6.65;100.00;100993.41;6275576;28;20079;-78
2022/02/03 13:42:30;;;;;;;7.40;3.47;;;;;;;6.78;100.00;100989.50;6265865;28;20527;-77
2022/02/03 13:45:33;;;;;;;9.65;3.42;;;;;;;6.77;100.00;100982.56;6274438;28;20041;-79
2022/02/03 13:48:37;;;;;;;5.65;2.63;;;;;;;6.77;100.00;100984.34;6283875;28;20044;-79
2022/02/03 13:51:40;;;;;;;7.18;3.17;;;;;;;6.79;100.00;100985.97;6283356;28;20056;-78
2022/02/03 13:55:08;;;;;;;5.00;2.85;;;;;;;6.82;100.00;100985.88;6285206;28;20056;-79
2022/02/03 14:15:09;;;;;;;4.82;1.70;;;;;;;6.92;100.00;100967.28;6283404;28;20053;-77
2022/02/03 14:18:27;;;;;;;4.38;2.25;;;;;;;6.93;100.00;100966.38;6277165;28;20527;-79
2022/02/03 14:21:30;;;;;;;5.63;2.45;;;;;;;6.92;100.00;100962.06;6274730;28;20059;-77
2022/02/03 14:27:51;;;;;;;4.28;2.00;;;;;;;6.96;100.00;100966.28;6274331;28;20040;-77
2022/02/03 14:30:55;;;;;;;3.90;2.40;;;;;;;6.93;100.00;100961.13;6277682;28;20049;-77
2022/02/03 14:34:01;;;;;;;7.20;3.10;;;;;;;6.99;100.00;100953.94;6281866;28;20057;-78
2022/02/03 14:37:11;;;;;;;6.13;3.22;;;;;;;6.94;100.00;100952.38;6278137;28;20051;-78
2022/02/03 14:40:31;;;;;;;9.00;2.28;;;;;;;6.93;100.00;100941.09;6278247;28;20130;-79
2022/02/03 14:43:33;;;;;;;6.28;2.33;;;;;;;6.97;100.00;100932.25;6284355;28;20048;-76
2022/02/03 14:46:34;;;;;;;4.15;2.45;;;;;;;7.07;100.00;100941.44;6285310;28;20049;-79
2022/02/03 14:49:39;;;;;;;5.60;2.72;;;;;;;6.96;100.00;100948.81;6279603;28;20052;-78
2022/02/03 14:52:57;;;;;;;3.90;2.70;;;;;;;6.95;100.00;100938.41;6269898;28;20527;-77
2022/02/03 14:59:18;;;;;;;4.22;2.25;;;;;;;6.85;100.00;100940.50;6275205;28;20053;-77
2022/02/03 15:02:19;;;;;;;6.00;3.10;;;;;;;6.84;100.00;100934.41;6274454;28;20053;-79
2022/02/03 15:05:26;;;;;;;5.55;2.47;;;;;;;6.85;100.00;100922.22;6275287;28;20048;-79
2022/02/03 15:08:45;;;;;;;7.70;2.35;;;;;;;6.79;100.00;100923.28;6275072;28;20049;-78
2022/02/03 15:12:05;;;;;;;4.45;2.53;;;;;;;6.80;100.00;100914.53;6274498;28;20048;-79
2022/02/03 15:15:09;;;;;;;5.55;2.97;;;;;;;6.81;100.00;100915.38;6275358;28;20049;-79
2022/02/03 15:18:10;;;;;;;5.25;2.35;;;;;;;6.82;100.00;100911.91;6274528;28;20052;-78
2022/02/03 15:21:13;;;;;;;8.75;2.70;;;;;;;6.83;100.00;100916.19;6271281;28;20129;-79
2022/02/03 15:24:14;;;;;;;5.38;2.17;;;;;;;6.80;100.00;100919.75;6249267;28;20054;-77
2022/02/03 15:27:17;;;;;;;5.28;3.05;;;;;;;6.80;100.00;100919.75;6262064;28;20048;-78
2022/02/03 15:30:18;;;;;;;5.13;2.70;;;;;;;6.92;100.00;100918.50;6261069;28;20412;-78
2022/02/03 15:33:24;;;;;;;4.78;3.05;;;;;;;6.85;100.00;100917.84;6269839;28;20199;-77
2022/02/03 15:36:27;;;;;;;5.82;2.95;;;;;;;6.79;100.00;100912.00;6273210;28;20052;-78
2022/02/03 15:39:36;;;;;;;4.35;2.58;;;;;;;6.73;100.00;100909.59;6281232;28;20137;-78
2022/02/03 15:42:41;;;;;;;5.20;2.70;;;;;;;6.69;100.00;100908.00;6280758;28;20057;-80
2022/02/03 15:45:48;;;;;;;6.93;2.63;;;;;;;6.68;100.00;100916.75;6274535;28;20036;-79
2022/02/03 15:48:56;;;;;;;8.32;2.78;;;;;;;6.67;100.00;100909.78;6281487;28;20041;-79
2022/02/03 16:18:48;;;;;;;5.22;2.80;;;;;;;6.47;100.00;100898.28;6262648;28;19925;-77
2022/02/03 16:21:54;;;;;;;5.95;2.42;;;;;;;6.52;100.00;100904.19;6262913;28;20118;-77
2022/02/03 16:25:01;;;;;;;6.00;3.00;;;;;;;6.49;100.00;100908.66;6270281;28;20052;-77
2022/02/03 16:42:28;;;;;;;4.25;2.80;;;;;;;6.13;100.00;100895.06;6254139;28;20601;-77
2022/02/03 16:52:08;;;;;;;7.30;3.28;;;;;;;6.01;100.00;100883.31;6248516;28;20124;-77
2022/02/03 16:55:13;;;;;;;4.63;2.70;;;;;;;5.99;100.00;100879.88;6247550;28;20386;-77
2022/02/03 16:58:16;;;;;;;5.25;3.10;;;;;;;5.96;100.00;100883.44;6258294;28;20051;-77
2022/02/03 17:01:17;;;;;;;7.43;3.53;;;;;;;5.96;100.00;100887.81;6273502;28;20052;-77
2022/02/03 17:04:19;;;;;;;11.10;3.95;;;;;;;5.95;100.00;100884.34;6272022;28;20044;-77
2022/02/03 17:07:21;;;;;;;7.63;3.58;;;;;;;5.96;100.00;100878.22;6261004;28;20126;-76
2022/02/03 17:10:22;;;;;;;13.75;4.55;;;;;;;5.96;100.00;100874.78;6261453;28;20053;-76
2022/02/03 17:13:25;;;;;;;7.63;4.15;;;;;;;5.99;100.00;100882.47;6260156;28;20056;-76
2022/02/03 17:16:26;;;;;;;9.07;4.75;;;;;;;5.99;100.00;100879.88;6258655;28;20045;-76
2022/02/03 17:19:28;;;;;;;8.40;4.10;;;;;;;5.98;100.00;100883.38;6255962;28;20045;-78
2022/02/03 17:22:33;;;;;;;10.30;5.50;;;;;;;5.96;100.00;100883.44;6254358;28;20041;-77
2022/02/03 17:25:47;;;;;;;10.00;5.57;;;;;;;5.95;100.00;100873.03;6255198;28;20107;-77
2022/02/03 17:28:55;;;;;;;11.23;5.15;;;;;;;5.91;100.00;100881.88;6271900;28;20048;-77
2022/02/03 17:32:09;;;;;;;8.48;4.85;;;;;;;5.89;100.00;100878.44;6271616;28;20052;-78
2022/02/03 18:08:38;;;;;;;19.30;8.27;;;;;;;5.62;100.00;100895.78;6271291;28;20076;-79
2022/02/03 18:11:56;;;;;;;16.35;8.70;;;;;;;5.65;100.00;100886.13;6270948;28;20056;-78
2022/02/03 18:32:01;;;;;;;15.90;8.50;;;;;;;5.61;100.00;100874.09;6271246;28;20135;-78
2022/02/03 18:52:02;;;;;;;28.80;9.98;;;;;;;5.36;100.00;100855.75;6174423;28;20114;-78
2022/02/03 18:55:23;;;;;;;21.30;8.63;;;;;;;5.38;100.00;100864.34;6177457;28;20452;-78
2022/02/03 18:58:36;;;;;;;19.95;9.93;;;;;;;5.39;100.00;100854.78;6290264;28;20073;-79
2022/02/03 19:01:53;;;;;;;19.25;9.48;;;;;;;5.40;100.00;100852.13;6276812;28;20052;-79
2022/02/03 19:28:58;;;;;;;25.38;10.38;;;;;;;5.43;100.00;100849.44;6290481;28;20048;-78
2022/02/03 20:02:25;;;;;;;18.55;8.60;;;;;;;5.55;100.00;100851.69;6290720;28;20040;-79
2022/02/03 20:05:36;;;;;;;21.17;8.40;;;;;;;5.54;100.00;100851.69;6284722;28;20142;-78
2022/02/03 20:08:43;;;;;;;19.45;8.57;;;;;;;5.53;100.00;100844.78;6273476;28;20059;-78
2022/02/03 20:11:45;;;;;;;17.42;7.85;;;;;;;5.52;100.00;100849.16;6274286;28;20045;-78
2022/02/03 20:14:49;;;;;;;15.85;8.02;;;;;;;5.52;100.00;100838.72;6283282;28;20048;-79
2022/02/03 20:17:50;;;;;;;19.88;9.55;;;;;;;5.55;100.00;100837.78;6287802;28;20084;-78
2022/02/03 20:20:53;;;;;;;18.52;8.70;;;;;;;5.52;100.00;100830.06;6267277;28;20052;-78
2022/02/03 20:23:54;;;;;;;15.98;7.35;;;;;;;5.46;100.00;100831.09;6272315;28;20041;-79
2022/02/03 20:26:55;;;;;;;17.90;9.10;;;;;;;5.43;100.00;100835.56;6274995;28;20076;-78
2022/02/03 20:29:57;;;;;;;18.23;8.75;;;;;;;5.40;100.00;100835.63;6275196;28;20049;-78
2022/02/03 20:32:58;;;;;;;13.07;6.75;;;;;;;5.39;100.00;100836.53;6275252;28;20052;-78
2022/02/03 20:36:01;;;;;;;15.25;7.88;;;;;;;5.35;100.00;100831.41;6275298;28;20511;-78
2022/02/03 20:39:03;;;;;;;19.60;8.75;;;;;;;5.36;100.00;100824.47;6275106;28;20051;-79
2022/02/03 20:42:07;;;;;;;21.83;9.32;;;;;;;5.35;100.00;100828.81;6274989;28;20045;-78
2022/02/03 20:45:10;;;;;;;16.25;8.57;;;;;;;5.34;100.00;100829.72;6275096;28;20405;-79
2022/02/03 20:48:12;;;;;;;17.90;7.47;;;;;;;5.34;100.00;100824.50;6275035;28;20134;-78
2022/02/03 20:51:17;;;;;;;18.85;8.45;;;;;;;5.33;100.00;100833.22;6274721;28;20045;-79
2022/02/03 20:54:18;;;;;;;22.08;8.25;;;;;;;5.26;100.00;100831.69;6274635;28;20048;-78
2022/02/03 20:57:20;;;;;;;17.23;8.25;;;;;;;5.25;100.00;100836.97;6267633;28;20179;-79
2022/02/03 21:00:24;;;;;;;19.15;8.50;;;;;;;5.23;100.00;100837.00;6268173;28;20049;-79
2022/02/03 21:03:30;;;;;;;16.25;7.80;;;;;;;5.22;100.00;100840.53;6273550;28;20045;-78
2022/02/03 21:06:35;;;;;;;21.88;9.43;;;;;;;5.23;100.00;100830.97;6273275;28;20432;-78
2022/02/03 21:09:36;;;;;;;19.27;9.18;;;;;;;5.25;100.00;100834.34;6273017;28;20056;-79
2022/02/03 21:12:38;;;;;;;18.45;7.80;;;;;;;5.26;100.00;100823.88;6272566;28;20056;-80
2022/02/03 21:15:40;;;;;;;18.83;7.85;;;;;;;5.25;100.00;100829.16;6273947;28;20053;-78
2022/02/03 21:18:43;;;;;;;14.45;7.25;;;;;;;5.22;100.00;100826.63;6274635;28;20052;-78
2022/02/03 21:21:46;;;;;;;17.45;8.43;;;;;;;5.19;100.00;100831.94;6275137;28;20138;-78
2022/02/03 21:24:47;;;;;;;18.58;8.88;;;;;;;5.18;100.00;100830.22;6271391;28;20443;-78
2022/02/03 21:27:53;;;;;;;16.60;8.40;;;;;;;5.15;100.00;100819.91;6273931;28;20077;-78
2022/02/03 21:30:56;;;;;;;17.33;9.02;;;;;;;5.15;100.00;100827.72;6270308;28;20052;-79
2022/02/03 21:33:58;;;;;;;17.10;8.30;;;;;;;5.14;100.00;100829.47;6269208;28;20048;-79
2022/02/03 21:37:00;;;;;;;17.98;7.80;;;;;;;5.15;100.00;100832.94;6271079;28;20551;-79